Pagina principale
METAR-TAF:

METAR-TAF

Aeroporti :

Aeroporto Internazionale Sir Seretse Khama

Gaborone, Botswana

latitudine: 24-13S, longitudine: 025-55E, altezza: 1005 m

Osservazione

Il bollettino è stato emesso 1 ora e 8 minuti fa, alle 12:00 UTC
Vento 5 kt da nord-est, variando fra nord e sud-est
Temperature 21°C
Umidità 18%
Pressione 1029 hPa
Visibilità 10 km o più
nessuna nube inferiore a 1500 m e nessun cumulonembo

METAR: FBSK 171200Z 05005KT 350V140 CAVOK 21/M04 Q1029 NOSIG

Ora: 15:08 (13:08 UTC)

Previsione

Il bollettino è stato emesso 4 ore e 8 minuti fa, alle 09:00 UTC
Previsione valida dal 17 alle 12 UTC al 18 alle 18 UTC
Vento 6 kt da est
Visibilità 10 km o più
nessuna nube inferiore a 1500 m e nessun cumulonembo

TAF: FBSK 170900Z 1712/1818 08006KT CAVOK

Osservazioni e previsioni meteorologiche di più di 4000 aeroporti (messaggi METAR e TAF).

Le stazioni disponibili sono rappresentate dai dischi gialli e rossi sulla carta.

Puntare il mouse per vedere il nome della stazione.

Clicca sopra per visualizzare le osservazioni e previsioni meteorologiche.

Per cambiare la mappa : fare clic sui pulsanti verdi con una croce nera per ingrandire, il pulsante verde con un trattino per diminuire, o sulla freccia verde per le mappe adiacenti.


METAR-TAF: